createdAt,value
2022-12-04T00:03:33.261Z,99048.16
2022-12-04T00:06:21.651Z,99047.63
2022-12-04T00:09:09.011Z,99030.34
2022-12-04T00:11:56.091Z,99045.19
2022-12-04T00:15:16.461Z,99035.19
2022-12-04T00:17:50.116Z,99041.97
2022-12-04T00:20:40.443Z,99034.13
2022-12-04T00:23:27.477Z,99039.00
2022-12-04T00:26:19.377Z,99046.47
2022-12-04T00:29:06.536Z,99047.13
2022-12-04T00:31:53.636Z,99042.38
2022-12-04T00:34:40.661Z,99040.34
2022-12-04T00:37:28.369Z,99039.13
2022-12-04T00:40:15.512Z,99042.09
2022-12-04T00:43:02.934Z,99044.69
2022-12-04T00:46:15.023Z,99029.03
2022-12-04T00:49:08.963Z,99010.56
2022-12-04T00:51:56.032Z,99050.19
2022-12-04T00:54:43.018Z,99039.38
2022-12-04T00:57:30.491Z,99038.94
2022-12-04T01:00:18.582Z,99035.44
2022-12-04T01:03:07.333Z,99039.16
2022-12-04T01:05:54.409Z,99047.63
2022-12-04T01:08:41.426Z,99040.66
2022-12-04T01:11:30.013Z,99047.41
2022-12-04T01:14:17.116Z,99035.13
2022-12-04T01:17:07.226Z,99027.69
2022-12-04T01:19:54.593Z,99043.09
2022-12-04T01:22:43.941Z,99051.16
2022-12-04T01:25:32.259Z,99030.34
2022-12-04T01:28:19.888Z,99044.44
2022-12-04T01:31:10.199Z,99041.06
2022-12-04T01:33:57.531Z,99055.38
2022-12-04T01:36:44.603Z,99030.22
2022-12-04T01:39:31.615Z,99030.13
2022-12-04T01:42:18.650Z,99018.88
2022-12-04T01:45:37.367Z,99022.19
2022-12-04T01:48:35.358Z,99031.38
2022-12-04T01:51:36.379Z,99031.69
2022-12-04T01:54:28.992Z,99022.69
2022-12-04T01:57:22.191Z,99033.03
2022-12-04T02:00:12.622Z,99044.44
2022-12-04T02:03:00.302Z,99036.06
2022-12-04T02:05:47.441Z,99015.00
2022-12-04T02:08:36.043Z,99038.41
2022-12-04T02:11:42.222Z,99046.75
2022-12-04T02:15:03.997Z,99039.69
2022-12-04T02:18:18.974Z,99044.50
2022-12-04T02:21:14.390Z,99047.53
2022-12-04T02:24:29.082Z,99041.19
2022-12-04T02:27:32.444Z,99034.06
2022-12-04T02:30:19.596Z,99040.06
2022-12-04T02:33:28.300Z,99041.94
2022-12-04T02:36:24.583Z,99050.09
2022-12-04T02:39:25.998Z,99069.25
2022-12-04T02:42:22.115Z,99053.53
2022-12-04T02:45:13.802Z,99067.13
2022-12-04T02:48:02.897Z,99060.06
2022-12-04T02:50:54.403Z,99047.88
2022-12-04T02:53:46.716Z,99043.28
2022-12-04T02:56:39.450Z,99036.31
2022-12-04T02:59:38.658Z,99032.09
2022-12-04T03:02:32.958Z,99053.41
2022-12-04T03:05:25.655Z,99046.84
2022-12-04T03:08:19.648Z,99028.47
2022-12-04T03:11:06.979Z,98965.09
2022-12-04T03:14:00.255Z,99021.31
2022-12-04T03:16:50.863Z,99039.63
2022-12-04T03:19:44.307Z,99039.72
2022-12-04T03:22:34.616Z,99037.50
2022-12-04T03:25:29.161Z,99027.41
2022-12-04T03:28:55.182Z,99020.25
2022-12-04T03:31:55.552Z,99029.69
2022-12-04T03:34:51.313Z,99018.41
2022-12-04T03:38:00.567Z,99031.41
2022-12-04T03:41:27.687Z,99012.16
2022-12-04T03:44:22.499Z,99021.38
2022-12-04T03:47:19.556Z,99019.94
2022-12-04T03:50:27.840Z,99021.00
2022-12-04T03:53:27.421Z,99020.13
2022-12-04T03:56:19.317Z,99022.22
2022-12-04T03:59:15.159Z,99013.44
2022-12-04T04:02:04.863Z,99025.13
2022-12-04T04:04:54.878Z,99016.25
2022-12-04T04:08:26.355Z,99020.03
2022-12-04T04:11:25.676Z,98998.34
2022-12-04T04:14:58.076Z,98996.94
2022-12-04T04:18:23.177Z,98993.13
2022-12-04T04:21:31.515Z,98998.25
2022-12-04T04:24:29.463Z,99011.56
2022-12-04T04:27:19.092Z,99005.44
2022-12-04T04:30:09.274Z,99011.59
2022-12-04T04:33:06.407Z,99020.09
2022-12-04T04:35:55.870Z,99013.94
2022-12-04T04:39:00.277Z,99004.81
2022-12-04T04:41:56.756Z,99024.09
2022-12-04T04:45:01.041Z,99022.19
2022-12-04T04:48:10.268Z,99026.53
2022-12-04T04:51:00.148Z,99014.50
2022-12-04T04:53:51.660Z,99011.31
2022-12-04T04:56:46.254Z,99026.44
2022-12-04T04:59:34.744Z,99011.47
2022-12-04T05:02:21.926Z,99020.06
2022-12-04T05:05:09.865Z,99016.09
2022-12-04T05:07:56.991Z,99013.53
2022-12-04T05:10:44.067Z,99015.47
2022-12-04T05:13:32.204Z,99018.84
2022-12-04T05:16:19.378Z,98995.09
2022-12-04T05:19:25.217Z,99015.69
2022-12-04T05:22:13.326Z,99017.50
2022-12-04T05:25:01.410Z,99012.31
2022-12-04T05:27:48.506Z,99029.38
2022-12-04T05:30:35.730Z,99033.25
2022-12-04T05:33:23.093Z,99010.09
2022-12-04T05:36:11.447Z,99012.78
2022-12-04T05:38:58.549Z,99011.34
2022-12-04T05:41:45.616Z,99004.56
2022-12-04T05:44:32.613Z,99008.00
2022-12-04T05:47:20.008Z,99021.19
2022-12-04T05:50:09.034Z,99026.09
2022-12-04T05:52:56.055Z,99031.16
2022-12-04T05:55:43.124Z,99044.69
2022-12-04T05:58:30.992Z,99018.44
2022-12-04T06:01:22.057Z,99028.97
2022-12-04T06:04:09.931Z,99026.44
2022-12-04T06:06:56.990Z,99049.81
2022-12-04T06:09:44.248Z,99039.28
2022-12-04T06:12:31.481Z,99059.84
2022-12-04T06:15:18.536Z,99063.22
2022-12-04T06:18:05.865Z,99049.09
2022-12-04T06:20:53.067Z,99064.19
2022-12-04T06:23:40.344Z,99058.88
2022-12-04T06:26:28.062Z,99053.22
2022-12-04T06:29:15.605Z,99059.50
2022-12-04T06:32:02.890Z,99072.50
2022-12-04T06:34:52.725Z,99077.72
2022-12-04T06:37:39.885Z,99086.88
2022-12-04T06:40:26.958Z,99081.50
2022-12-04T06:43:14.012Z,99063.97
2022-12-04T06:46:05.109Z,99089.16
2022-12-04T06:48:54.534Z,99082.59
2022-12-04T06:51:41.660Z,99067.69
2022-12-04T06:54:28.814Z,99085.28
2022-12-04T06:57:15.877Z,99059.66
2022-12-04T07:00:03.078Z,99082.09
2022-12-04T07:02:50.176Z,99084.84
2022-12-04T07:05:37.331Z,99074.78
2022-12-04T07:08:24.690Z,99084.25
2022-12-04T07:11:12.520Z,99088.72
2022-12-04T07:13:59.604Z,99079.69
2022-12-04T07:16:46.727Z,99078.13
2022-12-04T07:19:33.845Z,99072.06
2022-12-04T07:22:21.061Z,99058.25
2022-12-04T07:25:08.551Z,99082.13
2022-12-04T07:27:55.916Z,99080.19
2022-12-04T07:30:43.166Z,99082.63
2022-12-04T07:33:30.387Z,99074.91
2022-12-04T07:36:22.281Z,99067.66
2022-12-04T07:39:09.834Z,99090.28
2022-12-04T07:41:56.875Z,99074.09
2022-12-04T07:44:43.946Z,99077.72
2022-12-04T07:47:41.324Z,99061.38
2022-12-04T07:50:32.212Z,99065.59
2022-12-04T07:53:25.671Z,99080.25
2022-12-04T07:56:13.401Z,99070.84
2022-12-04T07:59:00.683Z,99077.97
2022-12-04T08:01:50.911Z,99082.78
2022-12-04T08:04:39.264Z,99084.03
2022-12-04T08:07:26.332Z,99087.91
2022-12-04T08:10:13.746Z,99087.06
2022-12-04T08:13:02.153Z,99086.81
2022-12-04T08:15:49.325Z,99072.75
2022-12-04T08:18:36.942Z,99069.13
2022-12-04T08:21:26.611Z,99098.34
2022-12-04T08:24:17.504Z,99078.22
2022-12-04T08:27:04.657Z,99095.03
2022-12-04T08:29:51.756Z,99071.78
2022-12-04T08:32:38.848Z,99075.41
2022-12-04T08:35:26.909Z,99080.97
2022-12-04T08:38:13.962Z,99064.03
2022-12-04T08:41:02.085Z,99079.78
2022-12-04T08:43:51.265Z,99078.69
2022-12-04T08:46:39.061Z,99063.16
2022-12-04T08:49:26.294Z,99064.78
2022-12-04T08:52:19.355Z,99053.88
2022-12-04T08:55:08.129Z,99069.09
2022-12-04T08:58:06.399Z,99070.44
2022-12-04T09:01:12.153Z,99079.78
2022-12-04T09:04:02.429Z,99091.28
2022-12-04T09:06:52.308Z,99081.59
2022-12-04T09:09:48.415Z,99078.06
2022-12-04T09:12:37.059Z,99096.25
2022-12-04T09:15:24.786Z,99094.31
2022-12-04T09:18:12.678Z,99103.38
2022-12-04T09:21:04.457Z,99090.44
2022-12-04T09:23:52.670Z,99083.31
2022-12-04T09:26:43.910Z,99093.22
2022-12-04T09:29:33.646Z,99086.91
2022-12-04T09:32:23.590Z,99079.28
2022-12-04T09:35:11.133Z,99076.50
2022-12-04T09:37:59.549Z,99069.09
2022-12-04T09:41:10.810Z,99046.22
2022-12-04T09:44:17.441Z,99056.63
2022-12-04T09:47:13.200Z,99057.41
2022-12-04T09:50:07.965Z,99057.50
2022-12-04T09:52:58.856Z,99052.34
2022-12-04T09:55:57.324Z,99051.88
2022-12-04T09:58:52.994Z,99021.44
2022-12-04T10:02:01.083Z,99051.50
2022-12-04T10:04:52.158Z,99054.13
2022-12-04T10:08:05.106Z,99059.81
2022-12-04T10:11:10.811Z,99045.19
2022-12-04T10:14:38.286Z,99046.09
2022-12-04T10:17:33.206Z,99034.78
2022-12-04T10:20:41.088Z,99038.47
2022-12-04T10:23:47.092Z,99040.78
2022-12-04T10:26:46.998Z,99036.44
2022-12-04T10:29:38.170Z,99043.81
2022-12-04T10:32:35.238Z,99037.78
2022-12-04T10:35:35.445Z,99030.38
2022-12-04T10:38:29.261Z,99030.81
2022-12-04T10:41:36.119Z,99031.63
2022-12-04T10:44:24.916Z,99020.47
2022-12-04T10:47:13.649Z,99022.88
2022-12-04T10:50:05.187Z,99021.63
2022-12-04T10:52:52.351Z,99011.13
2022-12-04T10:55:40.058Z,99028.75
2022-12-04T10:58:27.368Z,99011.94
2022-12-04T11:01:15.865Z,99017.75
2022-12-04T11:04:08.142Z,99009.88
2022-12-04T11:07:23.552Z,99017.41
2022-12-04T11:10:40.821Z,99016.06
2022-12-04T11:13:28.805Z,98982.28
2022-12-04T11:16:50.386Z,98997.69
2022-12-04T11:19:38.018Z,98978.75
2022-12-04T11:22:26.534Z,98989.88
2022-12-04T11:25:20.233Z,98990.13
2022-12-04T11:28:39.803Z,98991.97
2022-12-04T11:31:24.544Z,98992.44
2022-12-04T11:34:20.892Z,98974.16
2022-12-04T11:37:21.995Z,98991.72
2022-12-04T11:40:19.899Z,98993.53
2022-12-04T11:43:18.250Z,98987.19
2022-12-04T11:46:07.174Z,98982.13
2022-12-04T11:48:56.862Z,99000.63
2022-12-04T11:52:06.265Z,98996.03
2022-12-04T11:55:28.743Z,98991.09
2022-12-04T11:58:35.556Z,98986.97
2022-12-04T12:01:47.669Z,98985.41
2022-12-04T12:04:45.498Z,98961.59
2022-12-04T12:08:00.578Z,98989.91
2022-12-04T12:11:05.982Z,98991.16
2022-12-04T12:14:14.576Z,98992.22
2022-12-04T12:17:27.265Z,98984.84
2022-12-04T12:20:44.810Z,98992.84
2022-12-04T12:23:52.354Z,98996.97
2022-12-04T12:26:46.822Z,98993.22
2022-12-04T12:29:56.162Z,99009.31
2022-12-04T12:33:12.638Z,98996.38
2022-12-04T12:36:13.488Z,98992.16
2022-12-04T12:39:08.106Z,98997.47
2022-12-04T12:41:59.968Z,99000.88
2022-12-04T12:45:05.927Z,99003.75
2022-12-04T12:47:56.781Z,98997.22
2022-12-04T12:51:31.259Z,99005.56
2022-12-04T12:54:45.809Z,98991.53
2022-12-04T12:57:43.918Z,98989.56
2022-12-04T13:00:37.706Z,98976.66
2022-12-04T13:03:53.384Z,98993.69
2022-12-04T13:06:43.695Z,98993.81
2022-12-04T13:09:37.920Z,98985.22
2022-12-04T13:12:27.153Z,98994.78
2022-12-04T13:15:21.553Z,98989.44
2022-12-04T13:18:18.846Z,98993.69
2022-12-04T13:21:08.178Z,98999.22
2022-12-04T13:24:08.733Z,98988.22
2022-12-04T13:27:44.000Z,98993.44
2022-12-04T13:30:43.184Z,98990.66
2022-12-04T13:33:52.363Z,99004.66
2022-12-04T13:37:22.448Z,98997.41
2022-12-04T13:40:09.439Z,98993.91
2022-12-04T13:43:15.070Z,98989.19
2022-12-04T13:46:24.967Z,98991.97
2022-12-04T13:49:17.932Z,98973.81
2022-12-04T13:52:22.027Z,98976.81
2022-12-04T13:55:29.002Z,98964.59
2022-12-04T13:58:16.064Z,98970.75
2022-12-04T14:01:28.250Z,98953.34
2022-12-04T14:04:40.979Z,98937.50
2022-12-04T14:07:30.338Z,98957.22
2022-12-04T14:10:18.297Z,98959.75
2022-12-04T14:13:21.641Z,98960.94
2022-12-04T14:16:33.811Z,98953.69
2022-12-04T14:19:31.048Z,98964.31
2022-12-04T14:22:46.737Z,98957.09
2022-12-04T14:25:38.663Z,98981.25
2022-12-04T14:28:34.946Z,98966.13
2022-12-04T14:31:39.144Z,98949.44
2022-12-04T14:34:35.007Z,98955.88
2022-12-04T14:37:28.948Z,98948.38
2022-12-04T14:41:05.550Z,98951.25
2022-12-04T14:43:54.303Z,98953.69
2022-12-04T14:46:48.407Z,98956.47
2022-12-04T14:49:44.356Z,98955.88
2022-12-04T14:52:40.987Z,98960.47
2022-12-04T14:55:41.727Z,98959.13
2022-12-04T14:58:35.802Z,98953.91
2022-12-04T15:01:32.073Z,98952.34
2022-12-04T15:04:37.828Z,98949.91
2022-12-04T15:07:30.175Z,98932.66
2022-12-04T15:10:43.224Z,98932.66
2022-12-04T15:13:32.947Z,98930.44
2022-12-04T15:16:23.474Z,98924.63
2022-12-04T15:19:19.135Z,98939.03
2022-12-04T15:22:15.077Z,98949.63
2022-12-04T15:25:06.705Z,98950.34
2022-12-04T15:28:03.666Z,98959.63
2022-12-04T15:30:53.409Z,98963.84
2022-12-04T15:33:44.560Z,98966.66
2022-12-04T15:36:52.592Z,98980.66
2022-12-04T15:39:40.297Z,98988.72
2022-12-04T15:42:33.507Z,99010.63
2022-12-04T15:45:23.245Z,99020.41
2022-12-04T15:48:13.247Z,99013.09
2022-12-04T15:51:10.790Z,99030.03
2022-12-04T15:53:58.713Z,99015.13
2022-12-04T15:56:47.646Z,99012.16
2022-12-04T15:59:41.779Z,99001.16
2022-12-04T16:02:32.087Z,98990.56
2022-12-04T16:05:22.651Z,98991.50
2022-12-04T16:08:30.915Z,99003.94
2022-12-04T16:11:22.887Z,99012.25
2022-12-04T16:14:15.887Z,98998.63
2022-12-04T16:17:06.150Z,98997.88
2022-12-04T16:19:56.284Z,98974.34
2022-12-04T16:22:46.144Z,98993.25
2022-12-04T16:25:34.650Z,98982.63
2022-12-04T16:28:22.814Z,98990.81
2022-12-04T16:31:14.228Z,99000.41
2022-12-04T16:34:04.689Z,98990.75
2022-12-04T16:36:51.934Z,98994.13
2022-12-04T16:39:41.584Z,98993.91
2022-12-04T16:42:34.939Z,98995.19
2022-12-04T16:45:35.556Z,99011.88
2022-12-04T16:48:24.477Z,99008.47
2022-12-04T16:51:17.520Z,99010.81
2022-12-04T16:54:05.560Z,99005.22
2022-12-04T16:56:53.717Z,98988.06
2022-12-04T16:59:43.113Z,98979.63
2022-12-04T17:02:32.874Z,98996.91
2022-12-04T17:05:28.236Z,99002.00
2022-12-04T17:08:17.226Z,98993.13
2022-12-04T17:11:10.968Z,98984.03
2022-12-04T17:13:59.175Z,98980.75
2022-12-04T17:16:47.539Z,98991.88
2022-12-04T17:19:35.578Z,98998.66
2022-12-04T17:22:26.938Z,99012.63
2022-12-04T17:25:16.020Z,99001.25
2022-12-04T17:28:09.024Z,99000.38
2022-12-04T17:30:58.993Z,99002.50
2022-12-04T17:33:47.454Z,98993.91
2022-12-04T17:36:35.058Z,99017.91
2022-12-04T17:39:24.064Z,99007.09
2022-12-04T17:42:11.796Z,98999.75
2022-12-04T17:44:59.744Z,98970.84
2022-12-04T17:47:47.754Z,98986.97
2022-12-04T17:50:35.356Z,98972.31
2022-12-04T17:53:22.880Z,98969.63
2022-12-04T17:56:24.089Z,98954.56
2022-12-04T17:59:12.256Z,98974.25
2022-12-04T18:02:00.419Z,98976.38
2022-12-04T18:04:48.555Z,98984.03
2022-12-04T18:07:36.922Z,98983.28
2022-12-04T18:10:27.707Z,99005.50
2022-12-04T18:13:15.400Z,98989.66
2022-12-04T18:16:09.130Z,99002.50
2022-12-04T18:18:58.364Z,99003.34
2022-12-04T18:21:46.298Z,98987.97
2022-12-04T18:24:34.405Z,98976.75
2022-12-04T18:27:22.253Z,98968.31
2022-12-04T18:30:11.362Z,98969.75
2022-12-04T18:32:59.607Z,98974.97
2022-12-04T18:35:56.052Z,98967.13
2022-12-04T18:38:44.181Z,98965.94
2022-12-04T18:41:32.502Z,98948.75
2022-12-04T18:44:21.399Z,98947.78
2022-12-04T18:47:09.510Z,98925.91
2022-12-04T18:49:57.757Z,98921.84
2022-12-04T18:52:45.343Z,98903.97
2022-12-04T18:55:37.394Z,98919.59
2022-12-04T18:58:25.767Z,98908.22
2022-12-04T19:01:17.201Z,98906.31
2022-12-04T19:04:10.296Z,98937.13
2022-12-04T19:07:05.636Z,98931.19
2022-12-04T19:10:11.951Z,98930.59
2022-12-04T19:12:59.987Z,98911.84
2022-12-04T19:15:48.059Z,98915.47
2022-12-04T19:18:37.656Z,98897.72
2022-12-04T19:21:26.764Z,98904.38
2022-12-04T19:24:14.717Z,98919.75
2022-12-04T19:27:11.805Z,98914.38
2022-12-04T19:30:01.417Z,98913.53
2022-12-04T19:32:49.866Z,98896.19
2022-12-04T19:35:39.188Z,98917.22
2022-12-04T19:38:27.984Z,98901.72
2022-12-04T19:41:19.657Z,98904.88
2022-12-04T19:44:40.154Z,98876.63
2022-12-04T19:47:21.516Z,98894.16
2022-12-04T19:50:10.624Z,98883.00
2022-12-04T19:52:58.842Z,98878.88
2022-12-04T19:55:48.864Z,98899.13
2022-12-04T19:58:37.457Z,98880.50
2022-12-04T20:01:30.559Z,98889.22
2022-12-04T20:04:18.864Z,98881.13
2022-12-04T20:07:09.091Z,98874.34
2022-12-04T20:10:00.140Z,98888.25
2022-12-04T20:12:53.498Z,98896.69
2022-12-04T20:15:41.855Z,98893.06
2022-12-04T20:18:30.030Z,98884.88
2022-12-04T20:21:33.193Z,98889.22
2022-12-04T20:24:21.151Z,98875.66
2022-12-04T20:27:09.245Z,98880.50
2022-12-04T20:29:59.983Z,98872.91
2022-12-04T20:32:50.540Z,98837.44
2022-12-04T20:35:39.307Z,98872.78
2022-12-04T20:38:27.106Z,98864.06
2022-12-04T20:41:16.741Z,98830.25
2022-12-04T20:44:08.684Z,98823.25
2022-12-04T20:46:56.515Z,98827.09
2022-12-04T20:49:44.706Z,98813.34
2022-12-04T20:52:33.335Z,98820.81
2022-12-04T20:55:20.854Z,98827.94
2022-12-04T20:58:09.259Z,98829.28
2022-12-04T21:00:56.998Z,98843.19
2022-12-04T21:03:45.647Z,98844.88
2022-12-04T21:06:36.613Z,98843.06
2022-12-04T21:09:26.961Z,98835.56
2022-12-04T21:12:32.880Z,98826.88
2022-12-04T21:15:47.389Z,98819.63
2022-12-04T21:18:37.716Z,98825.78
2022-12-04T21:21:26.795Z,98837.38
2022-12-04T21:24:16.199Z,98841.13
2022-12-04T21:27:03.566Z,98816.03
2022-12-04T21:29:51.025Z,98839.41
2022-12-04T21:32:38.312Z,98830.31
2022-12-04T21:35:25.406Z,98836.09
2022-12-04T21:38:12.595Z,98819.44
2022-12-04T21:40:59.890Z,98813.28
2022-12-04T21:43:46.891Z,98824.41
2022-12-04T21:46:34.329Z,98824.41
2022-12-04T21:49:21.448Z,98815.09
2022-12-04T21:52:22.763Z,98824.91
2022-12-04T21:55:09.944Z,98810.16
2022-12-04T21:57:57.017Z,98818.47
2022-12-04T22:00:44.396Z,98817.63
2022-12-04T22:03:31.459Z,98822.81
2022-12-04T22:06:20.266Z,98824.50
2022-12-04T22:09:10.469Z,98813.50
2022-12-04T22:11:57.389Z,98824.97
2022-12-04T22:14:44.415Z,98825.06
2022-12-04T22:17:31.467Z,98817.72
2022-12-04T22:20:18.509Z,98823.66
2022-12-04T22:23:05.587Z,98832.94
2022-12-04T22:25:52.738Z,98820.78
2022-12-04T22:28:40.386Z,98831.91
2022-12-04T22:31:29.256Z,98822.88
2022-12-04T22:34:16.343Z,98819.94
2022-12-04T22:37:03.416Z,98816.03
2022-12-04T22:39:50.454Z,98815.69
2022-12-04T22:42:37.489Z,98821.00
2022-12-04T22:45:24.619Z,98822.72
2022-12-04T22:48:11.826Z,98832.25
2022-12-04T22:51:11.023Z,98839.16
2022-12-04T22:53:58.595Z,98799.56
2022-12-04T22:56:45.632Z,98833.28
2022-12-04T22:59:32.964Z,98822.31
2022-12-04T23:02:20.254Z,98832.88
2022-12-04T23:05:07.544Z,98813.56
2022-12-04T23:07:55.667Z,98826.81
2022-12-04T23:10:42.836Z,98827.28
2022-12-04T23:13:29.830Z,98828.53
2022-12-04T23:16:20.124Z,98835.31
2022-12-04T23:19:09.467Z,98836.38
2022-12-04T23:21:57.356Z,98831.84
2022-12-04T23:24:44.495Z,98843.31
2022-12-04T23:27:32.311Z,98835.97
2022-12-04T23:30:26.166Z,98836.53
2022-12-04T23:33:14.562Z,98842.81
2022-12-04T23:36:09.031Z,98843.31
2022-12-04T23:38:56.526Z,98841.84
2022-12-04T23:41:43.510Z,98849.94
2022-12-04T23:44:30.598Z,98853.84
2022-12-04T23:47:17.649Z,98856.22
2022-12-04T23:50:05.243Z,98857.56
2022-12-04T23:52:52.281Z,98857.91
2022-12-04T23:55:39.735Z,98870.09
2022-12-04T23:58:26.888Z,98877.06
